sensor_id;sensor_type;location;lat;lon;timestamp;temperature;humidity
47520;DHT22;33252;48.122;11.538;2023-04-03T00:01:35;3.60;99.90
47520;DHT22;33252;48.122;11.538;2023-04-03T00:04:04;3.60;99.90
47520;DHT22;33252;48.122;11.538;2023-04-03T00:06:30;3.60;99.90
47520;DHT22;33252;48.122;11.538;2023-04-03T00:08:56;3.60;99.90
47520;DHT22;33252;48.122;11.538;2023-04-03T00:11:22;3.60;99.90
47520;DHT22;33252;48.122;11.538;2023-04-03T00:13:47;3.50;99.90
47520;DHT22;33252;48.122;11.538;2023-04-03T00:16:13;3.50;99.90
47520;DHT22;33252;48.122;11.538;2023-04-03T00:18:39;3.70;99.90
47520;DHT22;33252;48.122;11.538;2023-04-03T00:21:06;3.50;99.90
47520;DHT22;33252;48.122;11.538;2023-04-03T00:23:32;3.50;99.90
47520;DHT22;33252;48.122;11.538;2023-04-03T00:25:58;3.60;99.90
47520;DHT22;33252;48.122;11.538;2023-04-03T00:28:23;3.50;99.90
47520;DHT22;33252;48.122;11.538;2023-04-03T00:30:49;3.50;99.90
47520;DHT22;33252;48.122;11.538;2023-04-03T00:33:16;3.40;99.90
47520;DHT22;33252;48.122;11.538;2023-04-03T00:35:41;3.40;99.90
47520;DHT22;33252;48.122;11.538;2023-04-03T00:38:07;3.50;99.90
47520;DHT22;33252;48.122;11.538;2023-04-03T00:40:38;3.50;99.90
47520;DHT22;33252;48.122;11.538;2023-04-03T00:43:12;3.50;99.90
47520;DHT22;33252;48.122;11.538;2023-04-03T00:45:41;3.40;99.90
47520;DHT22;33252;48.122;11.538;2023-04-03T00:48:13;3.50;99.90
47520;DHT22;33252;48.122;11.538;2023-04-03T00:50:42;3.50;99.90
47520;DHT22;33252;48.122;11.538;2023-04-03T00:53:13;3.40;99.90
47520;DHT22;33252;48.122;11.538;2023-04-03T00:55:40;3.40;99.90
47520;DHT22;33252;48.122;11.538;2023-04-03T00:58:07;3.40;99.90
47520;DHT22;33252;48.122;11.538;2023-04-03T01:00:34;3.40;99.90
47520;DHT22;33252;48.122;11.538;2023-04-03T01:03:01;3.40;99.90
47520;DHT22;33252;48.122;11.538;2023-04-03T01:05:27;3.50;99.90
47520;DHT22;33252;48.122;11.538;2023-04-03T01:07:53;3.50;99.90
47520;DHT22;33252;48.122;11.538;2023-04-03T01:10:20;3.40;99.90
47520;DHT22;33252;48.122;11.538;2023-04-03T01:12:53;3.50;99.90
47520;DHT22;33252;48.122;11.538;2023-04-03T01:15:24;3.50;99.90
47520;DHT22;33252;48.122;11.538;2023-04-03T01:17:54;3.40;99.90
47520;DHT22;33252;48.122;11.538;2023-04-03T01:25:41;3.40;99.90
47520;DHT22;33252;48.122;11.538;2023-04-03T01:28:10;3.40;99.90
47520;DHT22;33252;48.122;11.538;2023-04-03T01:33:28;3.30;99.90
47520;DHT22;33252;48.122;11.538;2023-04-03T01:35:54;3.50;99.90
47520;DHT22;33252;48.122;11.538;2023-04-03T01:38:19;3.40;99.90
47520;DHT22;33252;48.122;11.538;2023-04-03T01:40:46;3.50;99.90
47520;DHT22;33252;48.122;11.538;2023-04-03T01:43:11;3.50;99.90
47520;DHT22;33252;48.122;11.538;2023-04-03T01:45:37;3.50;99.90
47520;DHT22;33252;48.122;11.538;2023-04-03T01:48:03;3.50;99.90
47520;DHT22;33252;48.122;11.538;2023-04-03T01:50:29;3.40;99.90
47520;DHT22;33252;48.122;11.538;2023-04-03T01:52:54;3.30;99.90
47520;DHT22;33252;48.122;11.538;2023-04-03T01:55:20;3.40;99.90
47520;DHT22;33252;48.122;11.538;2023-04-03T01:57:46;3.40;99.90
47520;DHT22;33252;48.122;11.538;2023-04-03T02:00:12;3.40;99.90
47520;DHT22;33252;48.122;11.538;2023-04-03T02:02:38;3.40;99.90
47520;DHT22;33252;48.122;11.538;2023-04-03T02:05:03;3.40;99.90
47520;DHT22;33252;48.122;11.538;2023-04-03T02:07:29;3.40;99.90
47520;DHT22;33252;48.122;11.538;2023-04-03T02:09:55;3.40;99.90
47520;DHT22;33252;48.122;11.538;2023-04-03T02:12:21;3.40;99.90
47520;DHT22;33252;48.122;11.538;2023-04-03T02:14:46;3.50;99.90
47520;DHT22;33252;48.122;11.538;2023-04-03T02:17:12;3.50;99.90
47520;DHT22;33252;48.122;11.538;2023-04-03T02:19:38;3.50;99.90
47520;DHT22;33252;48.122;11.538;2023-04-03T02:22:04;3.30;99.90
47520;DHT22;33252;48.122;11.538;2023-04-03T02:24:30;3.30;99.90
47520;DHT22;33252;48.122;11.538;2023-04-03T02:26:56;3.40;99.90
47520;DHT22;33252;48.122;11.538;2023-04-03T02:29:21;3.40;99.90
47520;DHT22;33252;48.122;11.538;2023-04-03T02:31:48;3.30;99.90
47520;DHT22;33252;48.122;11.538;2023-04-03T02:34:13;3.30;99.90
47520;DHT22;33252;48.122;11.538;2023-04-03T02:36:39;3.30;99.90
47520;DHT22;33252;48.122;11.538;2023-04-03T02:39:04;3.40;99.90
47520;DHT22;33252;48.122;11.538;2023-04-03T02:41:31;3.40;99.90
47520;DHT22;33252;48.122;11.538;2023-04-03T02:44:04;3.40;99.90
47520;DHT22;33252;48.122;11.538;2023-04-03T02:46:30;3.20;99.90
47520;DHT22;33252;48.122;11.538;2023-04-03T02:48:55;3.20;99.90
47520;DHT22;33252;48.122;11.538;2023-04-03T02:51:21;3.20;99.90
47520;DHT22;33252;48.122;11.538;2023-04-03T02:53:49;3.30;99.90
47520;DHT22;33252;48.122;11.538;2023-04-03T02:56:15;3.30;99.90
47520;DHT22;33252;48.122;11.538;2023-04-03T02:58:41;3.30;99.90
47520;DHT22;33252;48.122;11.538;2023-04-03T03:01:06;3.30;99.90
47520;DHT22;33252;48.122;11.538;2023-04-03T03:03:32;3.40;99.90
47520;DHT22;33252;48.122;11.538;2023-04-03T03:06:06;3.40;99.90
47520;DHT22;33252;48.122;11.538;2023-04-03T03:08:33;3.40;99.90
47520;DHT22;33252;48.122;11.538;2023-04-03T03:10:58;3.40;99.90
47520;DHT22;33252;48.122;11.538;2023-04-03T03:13:24;3.30;99.90
47520;DHT22;33252;48.122;11.538;2023-04-03T03:15:50;3.30;99.90
47520;DHT22;33252;48.122;11.538;2023-04-03T03:18:16;3.30;99.90
47520;DHT22;33252;48.122;11.538;2023-04-03T03:20:42;3.30;99.90
47520;DHT22;33252;48.122;11.538;2023-04-03T03:23:07;3.30;99.90
47520;DHT22;33252;48.122;11.538;2023-04-03T03:25:33;3.30;99.90
47520;DHT22;33252;48.122;11.538;2023-04-03T03:27:58;3.30;99.90
47520;DHT22;33252;48.122;11.538;2023-04-03T03:30:24;3.30;99.90
47520;DHT22;33252;48.122;11.538;2023-04-03T03:32:50;3.40;99.90
47520;DHT22;33252;48.122;11.538;2023-04-03T03:35:16;3.30;99.90
47520;DHT22;33252;48.122;11.538;2023-04-03T03:37:41;3.40;99.90
47520;DHT22;33252;48.122;11.538;2023-04-03T03:40:07;3.40;99.90
47520;DHT22;33252;48.122;11.538;2023-04-03T03:42:33;3.30;99.90
47520;DHT22;33252;48.122;11.538;2023-04-03T03:44:59;3.30;99.90
47520;DHT22;33252;48.122;11.538;2023-04-03T03:47:26;3.40;99.90
47520;DHT22;33252;48.122;11.538;2023-04-03T03:49:52;3.30;99.90
47520;DHT22;33252;48.122;11.538;2023-04-03T03:52:17;3.30;99.90
47520;DHT22;33252;48.122;11.538;2023-04-03T03:54:43;3.30;99.90
47520;DHT22;33252;48.122;11.538;2023-04-03T03:57:08;3.30;99.90
47520;DHT22;33252;48.122;11.538;2023-04-03T03:59:34;3.30;99.90
47520;DHT22;33252;48.122;11.538;2023-04-03T04:02:00;3.30;99.90
47520;DHT22;33252;48.122;11.538;2023-04-03T04:04:26;3.30;99.90
47520;DHT22;33252;48.122;11.538;2023-04-03T04:06:51;3.40;99.90
47520;DHT22;33252;48.122;11.538;2023-04-03T04:09:17;3.30;99.90
47520;DHT22;33252;48.122;11.538;2023-04-03T04:11:43;3.30;99.90
47520;DHT22;33252;48.122;11.538;2023-04-03T04:14:10;3.40;99.90
47520;DHT22;33252;48.122;11.538;2023-04-03T04:16:37;3.30;99.90
47520;DHT22;33252;48.122;11.538;2023-04-03T04:19:03;3.30;99.90
47520;DHT22;33252;48.122;11.538;2023-04-03T04:21:29;3.30;99.90
47520;DHT22;33252;48.122;11.538;2023-04-03T04:23:55;3.30;99.90
47520;DHT22;33252;48.122;11.538;2023-04-03T04:26:21;3.30;99.90
47520;DHT22;33252;48.122;11.538;2023-04-03T04:28:46;3.30;99.90
47520;DHT22;33252;48.122;11.538;2023-04-03T04:31:12;3.20;99.90
47520;DHT22;33252;48.122;11.538;2023-04-03T04:33:37;3.20;99.90
47520;DHT22;33252;48.122;11.538;2023-04-03T04:36:03;3.30;99.90
47520;DHT22;33252;48.122;11.538;2023-04-03T04:38:29;3.30;99.90
47520;DHT22;33252;48.122;11.538;2023-04-03T04:40:55;3.30;99.90
47520;DHT22;33252;48.122;11.538;2023-04-03T04:43:20;3.30;99.90
47520;DHT22;33252;48.122;11.538;2023-04-03T04:45:46;3.20;99.90
47520;DHT22;33252;48.122;11.538;2023-04-03T04:48:12;3.20;99.90
47520;DHT22;33252;48.122;11.538;2023-04-03T04:50:38;3.20;99.90
47520;DHT22;33252;48.122;11.538;2023-04-03T04:53:03;3.30;99.90
47520;DHT22;33252;48.122;11.538;2023-04-03T04:55:29;3.30;99.90
47520;DHT22;33252;48.122;11.538;2023-04-03T04:57:55;3.30;99.90
47520;DHT22;33252;48.122;11.538;2023-04-03T05:00:21;3.30;99.90
47520;DHT22;33252;48.122;11.538;2023-04-03T05:02:47;3.30;99.90
47520;DHT22;33252;48.122;11.538;2023-04-03T05:05:12;3.20;99.90
47520;DHT22;33252;48.122;11.538;2023-04-03T05:07:38;3.20;99.90
47520;DHT22;33252;48.122;11.538;2023-04-03T05:10:04;3.20;99.90
47520;DHT22;33252;48.122;11.538;2023-04-03T05:12:31;3.20;99.90
47520;DHT22;33252;48.122;11.538;2023-04-03T05:14:57;3.20;99.90
47520;DHT22;33252;48.122;11.538;2023-04-03T05:17:22;3.20;99.90
47520;DHT22;33252;48.122;11.538;2023-04-03T05:19:48;3.20;99.90
47520;DHT22;33252;48.122;11.538;2023-04-03T05:22:14;3.30;99.90
47520;DHT22;33252;48.122;11.538;2023-04-03T05:24:40;3.30;99.90
47520;DHT22;33252;48.122;11.538;2023-04-03T05:27:06;3.30;99.90
47520;DHT22;33252;48.122;11.538;2023-04-03T05:29:31;3.30;99.90
47520;DHT22;33252;48.122;11.538;2023-04-03T05:31:57;3.30;99.90
47520;DHT22;33252;48.122;11.538;2023-04-03T05:34:23;3.30;99.90
47520;DHT22;33252;48.122;11.538;2023-04-03T05:36:48;3.30;99.90
47520;DHT22;33252;48.122;11.538;2023-04-03T05:39:14;3.30;99.90
47520;DHT22;33252;48.122;11.538;2023-04-03T05:41:40;3.30;99.90
47520;DHT22;33252;48.122;11.538;2023-04-03T05:44:05;3.40;99.90
47520;DHT22;33252;48.122;11.538;2023-04-03T05:46:31;3.40;99.90
47520;DHT22;33252;48.122;11.538;2023-04-03T05:48:57;3.30;99.90
47520;DHT22;33252;48.122;11.538;2023-04-03T05:51:25;3.40;99.90
47520;DHT22;33252;48.122;11.538;2023-04-03T05:53:59;3.40;99.90
47520;DHT22;33252;48.122;11.538;2023-04-03T05:56:26;3.40;99.90
47520;DHT22;33252;48.122;11.538;2023-04-03T05:58:52;3.40;99.90
47520;DHT22;33252;48.122;11.538;2023-04-03T06:01:17;3.40;99.90
47520;DHT22;33252;48.122;11.538;2023-04-03T06:03:43;3.40;99.90
47520;DHT22;33252;48.122;11.538;2023-04-03T06:06:13;3.40;99.90
47520;DHT22;33252;48.122;11.538;2023-04-03T06:08:39;3.40;99.90
47520;DHT22;33252;48.122;11.538;2023-04-03T06:11:05;3.50;99.90
47520;DHT22;33252;48.122;11.538;2023-04-03T06:13:31;3.50;99.90
47520;DHT22;33252;48.122;11.538;2023-04-03T06:15:57;3.50;99.90
47520;DHT22;33252;48.122;11.538;2023-04-03T06:18:23;3.50;99.90
47520;DHT22;33252;48.122;11.538;2023-04-03T06:20:48;3.60;99.90
47520;DHT22;33252;48.122;11.538;2023-04-03T06:23:14;3.60;99.90
47520;DHT22;33252;48.122;11.538;2023-04-03T06:25:39;3.60;99.90
47520;DHT22;33252;48.122;11.538;2023-04-03T06:28:06;3.60;99.90
47520;DHT22;33252;48.122;11.538;2023-04-03T06:30:34;3.60;99.90
47520;DHT22;33252;48.122;11.538;2023-04-03T06:33:00;3.70;99.90
47520;DHT22;33252;48.122;11.538;2023-04-03T06:35:26;3.70;99.90
47520;DHT22;33252;48.122;11.538;2023-04-03T06:37:53;3.60;99.90
47520;DHT22;33252;48.122;11.538;2023-04-03T06:40:24;3.60;99.90
47520;DHT22;33252;48.122;11.538;2023-04-03T06:42:50;3.60;99.90
47520;DHT22;33252;48.122;11.538;2023-04-03T06:45:16;3.70;99.90
47520;DHT22;33252;48.122;11.538;2023-04-03T06:47:43;3.70;99.90
47520;DHT22;33252;48.122;11.538;2023-04-03T06:50:10;3.70;99.90
47520;DHT22;33252;48.122;11.538;2023-04-03T06:52:37;3.80;99.90
47520;DHT22;33252;48.122;11.538;2023-04-03T06:55:03;3.90;99.90
47520;DHT22;33252;48.122;11.538;2023-04-03T06:57:29;3.80;99.90
47520;DHT22;33252;48.122;11.538;2023-04-03T06:59:55;3.90;99.90
47520;DHT22;33252;48.122;11.538;2023-04-03T07:02:21;3.90;99.90
47520;DHT22;33252;48.122;11.538;2023-04-03T07:04:47;3.90;99.90
47520;DHT22;33252;48.122;11.538;2023-04-03T07:07:12;3.90;99.90
47520;DHT22;33252;48.122;11.538;2023-04-03T07:09:38;4.00;99.90
47520;DHT22;33252;48.122;11.538;2023-04-03T07:12:04;4.00;99.80
47520;DHT22;33252;48.122;11.538;2023-04-03T07:14:29;4.00;99.90
47520;DHT22;33252;48.122;11.538;2023-04-03T07:16:55;4.00;99.90
47520;DHT22;33252;48.122;11.538;2023-04-03T07:19:21;4.20;99.90
47520;DHT22;33252;48.122;11.538;2023-04-03T07:21:47;4.10;99.90
47520;DHT22;33252;48.122;11.538;2023-04-03T07:24:12;4.10;99.90
47520;DHT22;33252;48.122;11.538;2023-04-03T07:26:38;4.10;99.70
47520;DHT22;33252;48.122;11.538;2023-04-03T07:29:04;4.10;99.90
47520;DHT22;33252;48.122;11.538;2023-04-03T07:31:30;4.10;99.90
47520;DHT22;33252;48.122;11.538;2023-04-03T07:33:55;4.20;99.90
47520;DHT22;33252;48.122;11.538;2023-04-03T07:36:22;4.20;99.90
47520;DHT22;33252;48.122;11.538;2023-04-03T07:38:48;4.20;99.90
47520;DHT22;33252;48.122;11.538;2023-04-03T07:41:15;4.10;99.90
47520;DHT22;33252;48.122;11.538;2023-04-03T07:43:44;4.10;99.90
47520;DHT22;33252;48.122;11.538;2023-04-03T07:46:10;4.10;99.80
47520;DHT22;33252;48.122;11.538;2023-04-03T07:48:36;4.10;99.90
47520;DHT22;33252;48.122;11.538;2023-04-03T07:51:02;4.30;99.30
47520;DHT22;33252;48.122;11.538;2023-04-03T07:53:29;4.20;99.20
47520;DHT22;33252;48.122;11.538;2023-04-03T07:55:57;4.20;99.50
47520;DHT22;33252;48.122;11.538;2023-04-03T07:58:23;4.30;99.40
47520;DHT22;33252;48.122;11.538;2023-04-03T08:00:48;4.20;99.90
47520;DHT22;33252;48.122;11.538;2023-04-03T08:03:15;4.20;99.60
47520;DHT22;33252;48.122;11.538;2023-04-03T08:05:46;4.20;99.70
47520;DHT22;33252;48.122;11.538;2023-04-03T08:08:14;4.20;99.70
47520;DHT22;33252;48.122;11.538;2023-04-03T08:10:41;4.20;99.90
47520;DHT22;33252;48.122;11.538;2023-04-03T08:13:08;4.10;99.90
47520;DHT22;33252;48.122;11.538;2023-04-03T08:15:34;4.20;99.90
47520;DHT22;33252;48.122;11.538;2023-04-03T08:18:01;4.10;99.90
47520;DHT22;33252;48.122;11.538;2023-04-03T08:20:27;4.00;99.90
47520;DHT22;33252;48.122;11.538;2023-04-03T08:22:53;4.00;99.90
47520;DHT22;33252;48.122;11.538;2023-04-03T08:25:19;4.00;99.90
47520;DHT22;33252;48.122;11.538;2023-04-03T08:27:45;4.10;99.90
47520;DHT22;33252;48.122;11.538;2023-04-03T08:30:11;4.00;99.80
47520;DHT22;33252;48.122;11.538;2023-04-03T08:32:37;4.10;99.90
47520;DHT22;33252;48.122;11.538;2023-04-03T08:35:04;4.20;99.90
47520;DHT22;33252;48.122;11.538;2023-04-03T08:37:30;4.30;99.90
47520;DHT22;33252;48.122;11.538;2023-04-03T08:39:56;4.30;99.50
47520;DHT22;33252;48.122;11.538;2023-04-03T08:45:09;4.40;99.80
47520;DHT22;33252;48.122;11.538;2023-04-03T08:47:39;4.40;99.90
47520;DHT22;33252;48.122;11.538;2023-04-03T08:50:10;4.50;99.40
47520;DHT22;33252;48.122;11.538;2023-04-03T08:52:49;4.50;98.70
47520;DHT22;33252;48.122;11.538;2023-04-03T08:55:27;4.50;98.80
47520;DHT22;33252;48.122;11.538;2023-04-03T08:58:16;4.40;98.20
47520;DHT22;33252;48.122;11.538;2023-04-03T09:01:19;4.50;98.30
47520;DHT22;33252;48.122;11.538;2023-04-03T09:03:45;4.60;98.40
47520;DHT22;33252;48.122;11.538;2023-04-03T09:06:17;4.60;98.70
47520;DHT22;33252;48.122;11.538;2023-04-03T09:08:56;4.70;99.00
47520;DHT22;33252;48.122;11.538;2023-04-03T09:14:38;4.60;98.10
47520;DHT22;33252;48.122;11.538;2023-04-03T09:18:11;4.60;98.00
47520;DHT22;33252;48.122;11.538;2023-04-03T09:22:59;4.80;98.10
47520;DHT22;33252;48.122;11.538;2023-04-03T09:25:34;4.80;98.00
47520;DHT22;33252;48.122;11.538;2023-04-03T09:28:02;4.80;98.10
47520;DHT22;33252;48.122;11.538;2023-04-03T09:30:28;4.90;98.00
47520;DHT22;33252;48.122;11.538;2023-04-03T09:32:56;5.00;98.40
47520;DHT22;33252;48.122;11.538;2023-04-03T09:40:49;5.00;97.20
47520;DHT22;33252;48.122;11.538;2023-04-03T09:45:50;5.10;97.60
47520;DHT22;33252;48.122;11.538;2023-04-03T09:48:19;5.20;96.50
47520;DHT22;33252;48.122;11.538;2023-04-03T09:55:55;5.20;97.40
47520;DHT22;33252;48.122;11.538;2023-04-03T09:58:30;5.10;96.30
47520;DHT22;33252;48.122;11.538;2023-04-03T10:01:00;5.10;96.90
47520;DHT22;33252;48.122;11.538;2023-04-03T10:03:35;5.00;97.20
47520;DHT22;33252;48.122;11.538;2023-04-03T10:06:03;4.90;97.80
47520;DHT22;33252;48.122;11.538;2023-04-03T10:08:31;4.90;98.30
47520;DHT22;33252;48.122;11.538;2023-04-03T10:11:12;5.00;97.50
47520;DHT22;33252;48.122;11.538;2023-04-03T10:13:56;5.00;96.20
47520;DHT22;33252;48.122;11.538;2023-04-03T10:16:27;5.10;96.00
47520;DHT22;33252;48.122;11.538;2023-04-03T10:19:00;5.20;96.20
47520;DHT22;33252;48.122;11.538;2023-04-03T10:21:39;5.20;95.90
47520;DHT22;33252;48.122;11.538;2023-04-03T10:27:02;5.20;96.90
47520;DHT22;33252;48.122;11.538;2023-04-03T10:29:58;5.00;96.70
47520;DHT22;33252;48.122;11.538;2023-04-03T10:35:44;4.90;97.20
47520;DHT22;33252;48.122;11.538;2023-04-03T10:38:23;4.80;97.60
47520;DHT22;33252;48.122;11.538;2023-04-03T10:43:30;4.90;97.50
47520;DHT22;33252;48.122;11.538;2023-04-03T10:46:28;4.80;97.50
47520;DHT22;33252;48.122;11.538;2023-04-03T10:51:45;4.80;97.50
47520;DHT22;33252;48.122;11.538;2023-04-03T10:54:18;4.60;97.90
47520;DHT22;33252;48.122;11.538;2023-04-03T10:59:53;4.50;97.60
47520;DHT22;33252;48.122;11.538;2023-04-03T11:05:04;4.40;99.60
47520;DHT22;33252;48.122;11.538;2023-04-03T11:07:40;4.30;99.70
47520;DHT22;33252;48.122;11.538;2023-04-03T11:10:35;4.30;99.90
47520;DHT22;33252;48.122;11.538;2023-04-03T11:13:09;4.20;99.90
47520;DHT22;33252;48.122;11.538;2023-04-03T11:15:37;4.10;99.90
47520;DHT22;33252;48.122;11.538;2023-04-03T11:18:27;4.20;99.90
47520;DHT22;33252;48.122;11.538;2023-04-03T11:21:18;4.30;99.90
47520;DHT22;33252;48.122;11.538;2023-04-03T11:23:47;4.30;99.90
47520;DHT22;33252;48.122;11.538;2023-04-03T11:26:15;4.20;99.90
47520;DHT22;33252;48.122;11.538;2023-04-03T11:28:42;4.30;99.90
47520;DHT22;33252;48.122;11.538;2023-04-03T11:31:52;4.40;99.80
47520;DHT22;33252;48.122;11.538;2023-04-03T11:34:47;4.40;99.20
47520;DHT22;33252;48.122;11.538;2023-04-03T11:37:31;4.50;98.60
47520;DHT22;33252;48.122;11.538;2023-04-03T11:40:06;4.60;97.90
47520;DHT22;33252;48.122;11.538;2023-04-03T11:42:38;4.80;97.10
47520;DHT22;33252;48.122;11.538;2023-04-03T11:50:45;5.10;96.10
47520;DHT22;33252;48.122;11.538;2023-04-03T11:58:16;5.20;94.10
47520;DHT22;33252;48.122;11.538;2023-04-03T12:05:56;5.40;94.10
47520;DHT22;33252;48.122;11.538;2023-04-03T12:08:25;5.40;92.90
47520;DHT22;33252;48.122;11.538;2023-04-03T12:27:03;5.70;91.50
47520;DHT22;33252;48.122;11.538;2023-04-03T12:34:46;5.60;91.40
47520;DHT22;33252;48.122;11.538;2023-04-03T12:37:39;5.60;91.20
47520;DHT22;33252;48.122;11.538;2023-04-03T12:45:18;5.70;90.00
47520;DHT22;33252;48.122;11.538;2023-04-03T12:47:45;5.70;90.30
47520;DHT22;33252;48.122;11.538;2023-04-03T12:50:31;5.70;90.80
47520;DHT22;33252;48.122;11.538;2023-04-03T12:53:06;5.60;89.60
47520;DHT22;33252;48.122;11.538;2023-04-03T12:55:33;5.80;90.40
47520;DHT22;33252;48.122;11.538;2023-04-03T12:58:16;6.00;89.80
47520;DHT22;33252;48.122;11.538;2023-04-03T13:00:42;6.00;87.50
47520;DHT22;33252;48.122;11.538;2023-04-03T13:03:22;6.10;88.90
47520;DHT22;33252;48.122;11.538;2023-04-03T13:05:49;6.00;89.80
47520;DHT22;33252;48.122;11.538;2023-04-03T13:08:15;6.00;88.70
47520;DHT22;33252;48.122;11.538;2023-04-03T13:10:58;5.90;88.70
47520;DHT22;33252;48.122;11.538;2023-04-03T13:13:24;5.80;87.40
47520;DHT22;33252;48.122;11.538;2023-04-03T13:15:52;5.90;90.00
47520;DHT22;33252;48.122;11.538;2023-04-03T13:18:32;6.00;86.60
47520;DHT22;33252;48.122;11.538;2023-04-03T13:21:08;6.20;87.30
47520;DHT22;33252;48.122;11.538;2023-04-03T13:23:39;6.40;86.80
47520;DHT22;33252;48.122;11.538;2023-04-03T13:26:06;6.90;87.70
47520;DHT22;33252;48.122;11.538;2023-04-03T13:28:33;7.50;83.20
47520;DHT22;33252;48.122;11.538;2023-04-03T13:31:16;9.00;81.80
47520;DHT22;33252;48.122;11.538;2023-04-03T13:36:23;10.60;75.20
47520;DHT22;33252;48.122;11.538;2023-04-03T13:41:36;12.20;71.70
47520;DHT22;33252;48.122;11.538;2023-04-03T13:46:50;8.80;75.20
47520;DHT22;33252;48.122;11.538;2023-04-03T13:49:31;7.90;76.40
47520;DHT22;33252;48.122;11.538;2023-04-03T13:51:57;7.20;78.90
47520;DHT22;33252;48.122;11.538;2023-04-03T13:54:33;6.90;80.20
47520;DHT22;33252;48.122;11.538;2023-04-03T13:57:01;6.80;80.90
47520;DHT22;33252;48.122;11.538;2023-04-03T13:59:31;6.70;81.20
47520;DHT22;33252;48.122;11.538;2023-04-03T14:07:02;6.20;82.90
47520;DHT22;33252;48.122;11.538;2023-04-03T14:09:28;6.20;83.00
47520;DHT22;33252;48.122;11.538;2023-04-03T14:11:57;6.30;81.40
47520;DHT22;33252;48.122;11.538;2023-04-03T14:14:27;6.30;83.40
47520;DHT22;33252;48.122;11.538;2023-04-03T14:16:58;6.40;82.00
47520;DHT22;33252;48.122;11.538;2023-04-03T14:19:31;6.40;82.40
47520;DHT22;33252;48.122;11.538;2023-04-03T14:21:59;6.40;81.90
47520;DHT22;33252;48.122;11.538;2023-04-03T14:24:25;6.50;81.60
47520;DHT22;33252;48.122;11.538;2023-04-03T14:26:53;6.50;81.30
47520;DHT22;33252;48.122;11.538;2023-04-03T14:29:22;6.60;82.10
47520;DHT22;33252;48.122;11.538;2023-04-03T14:31:49;6.80;81.20
47520;DHT22;33252;48.122;11.538;2023-04-03T14:34:15;8.10;78.90
47520;DHT22;33252;48.122;11.538;2023-04-03T14:36:44;11.60;71.00
47520;DHT22;33252;48.122;11.538;2023-04-03T14:39:17;13.70;65.70
47520;DHT22;33252;48.122;11.538;2023-04-03T14:41:44;14.60;65.20
47520;DHT22;33252;48.122;11.538;2023-04-03T14:44:10;14.30;63.70
47520;DHT22;33252;48.122;11.538;2023-04-03T14:46:38;12.20;65.00
47520;DHT22;33252;48.122;11.538;2023-04-03T14:49:15;10.40;67.50
47520;DHT22;33252;48.122;11.538;2023-04-03T14:51:43;9.50;70.40
47520;DHT22;33252;48.122;11.538;2023-04-03T14:54:17;8.90;72.00
47520;DHT22;33252;48.122;11.538;2023-04-03T14:56:44;8.50;71.60
47520;DHT22;33252;48.122;11.538;2023-04-03T14:59:12;8.20;72.00
47520;DHT22;33252;48.122;11.538;2023-04-03T15:01:38;7.90;74.60
47520;DHT22;33252;48.122;11.538;2023-04-03T15:04:15;7.80;74.80
47520;DHT22;33252;48.122;11.538;2023-04-03T15:06:41;7.60;76.00
47520;DHT22;33252;48.122;11.538;2023-04-03T15:11:48;7.30;77.10
47520;DHT22;33252;48.122;11.538;2023-04-03T15:14:14;7.10;75.20
47520;DHT22;33252;48.122;11.538;2023-04-03T15:16:39;6.90;75.40
47520;DHT22;33252;48.122;11.538;2023-04-03T15:19:05;6.80;73.90
47520;DHT22;33252;48.122;11.538;2023-04-03T15:21:30;6.70;74.50
47520;DHT22;33252;48.122;11.538;2023-04-03T15:23:56;6.70;74.30
47520;DHT22;33252;48.122;11.538;2023-04-03T15:26:22;6.60;73.60
47520;DHT22;33252;48.122;11.538;2023-04-03T15:28:47;6.50;74.20
47520;DHT22;33252;48.122;11.538;2023-04-03T15:31:13;6.50;74.20
47520;DHT22;33252;48.122;11.538;2023-04-03T15:33:39;6.50;75.00
47520;DHT22;33252;48.122;11.538;2023-04-03T15:36:05;6.50;73.40
47520;DHT22;33252;48.122;11.538;2023-04-03T15:38:31;6.50;72.60
47520;DHT22;33252;48.122;11.538;2023-04-03T15:40:57;6.40;72.80
47520;DHT22;33252;48.122;11.538;2023-04-03T15:43:22;6.40;71.80
47520;DHT22;33252;48.122;11.538;2023-04-03T15:45:48;6.40;72.50
47520;DHT22;33252;48.122;11.538;2023-04-03T15:48:14;6.40;74.30
47520;DHT22;33252;48.122;11.538;2023-04-03T15:50:41;6.30;71.70
47520;DHT22;33252;48.122;11.538;2023-04-03T15:53:07;6.30;72.00
47520;DHT22;33252;48.122;11.538;2023-04-03T15:55:35;6.40;73.20
47520;DHT22;33252;48.122;11.538;2023-04-03T15:58:02;7.10;73.20
47520;DHT22;33252;48.122;11.538;2023-04-03T16:00:28;7.20;71.80
47520;DHT22;33252;48.122;11.538;2023-04-03T16:03:05;6.90;72.50
47520;DHT22;33252;48.122;11.538;2023-04-03T16:05:31;6.80;71.90
47520;DHT22;33252;48.122;11.538;2023-04-03T16:07:59;6.70;70.60
47520;DHT22;33252;48.122;11.538;2023-04-03T16:10:25;6.50;71.80
47520;DHT22;33252;48.122;11.538;2023-04-03T16:12:51;6.60;71.20
47520;DHT22;33252;48.122;11.538;2023-04-03T16:15:17;6.50;71.10
47520;DHT22;33252;48.122;11.538;2023-04-03T16:17:43;6.50;72.00
47520;DHT22;33252;48.122;11.538;2023-04-03T16:20:10;6.40;73.10
47520;DHT22;33252;48.122;11.538;2023-04-03T16:22:36;6.30;73.10
47520;DHT22;33252;48.122;11.538;2023-04-03T16:25:04;6.30;73.40
47520;DHT22;33252;48.122;11.538;2023-04-03T16:27:30;6.10;74.10
47520;DHT22;33252;48.122;11.538;2023-04-03T16:29:57;6.10;74.30
47520;DHT22;33252;48.122;11.538;2023-04-03T16:32:23;6.00;74.20
47520;DHT22;33252;48.122;11.538;2023-04-03T16:34:50;6.00;74.20
47520;DHT22;33252;48.122;11.538;2023-04-03T16:37:16;5.90;73.60
47520;DHT22;33252;48.122;11.538;2023-04-03T16:39:42;5.90;73.90
47520;DHT22;33252;48.122;11.538;2023-04-03T16:42:08;5.80;73.40
47520;DHT22;33252;48.122;11.538;2023-04-03T16:44:35;5.70;73.20
47520;DHT22;33252;48.122;11.538;2023-04-03T16:47:01;5.70;74.10
47520;DHT22;33252;48.122;11.538;2023-04-03T16:49:27;5.70;72.20
47520;DHT22;33252;48.122;11.538;2023-04-03T16:51:58;5.60;72.20
47520;DHT22;33252;48.122;11.538;2023-04-03T16:54:24;5.60;73.50
47520;DHT22;33252;48.122;11.538;2023-04-03T16:56:50;5.50;74.20
47520;DHT22;33252;48.122;11.538;2023-04-03T16:59:15;5.60;73.10
47520;DHT22;33252;48.122;11.538;2023-04-03T17:01:41;5.50;72.20
47520;DHT22;33252;48.122;11.538;2023-04-03T17:04:07;5.50;73.00
47520;DHT22;33252;48.122;11.538;2023-04-03T17:06:33;5.50;73.60
47520;DHT22;33252;48.122;11.538;2023-04-03T17:08:58;5.50;73.80
47520;DHT22;33252;48.122;11.538;2023-04-03T17:11:24;5.40;74.40
47520;DHT22;33252;48.122;11.538;2023-04-03T17:13:51;5.30;75.80
47520;DHT22;33252;48.122;11.538;2023-04-03T17:16:16;5.20;75.50
47520;DHT22;33252;48.122;11.538;2023-04-03T17:18:43;5.20;75.40
47520;DHT22;33252;48.122;11.538;2023-04-03T17:21:11;5.10;77.00
47520;DHT22;33252;48.122;11.538;2023-04-03T17:23:38;5.10;76.50